SouthEast Lincoln: Weather Underground Data


Davis Vantage Pro Historical Data
 
Daily Summary for September 24, 2017 Units:  English    Metric   Both
« Previous Day
Next Day »
Daily Weekly Monthly Yearly Custom
  Current: High: Low: Average:
Temperature: 67.9 °F 88.2 °F 67.9 °F 77.2 °F
Dew Point: 64.2 °F 71.2 °F 63.5 °F 65.9 °F
Humidity: 88% 89% 49% 69%
Wind Speed: 0.0mph 15.0mph 0.0mph 3.6mph
Wind Gust: 0.0mph 15.0mph - -
Wind:Calm - - South
Pressure: 29.89 in 29.89 in 29.80 in -
Precipitation: 0.46 in      
Historical Graphs
 
 
Tabular Data for September 24, 2017
Time Temperature Dew Point Pressure Wind Wind Speed Wind Gust Humidity Rainfall Rate (Hourly) solar
00:01 77.8 °F 64.7 °F 29.83 in South 8.0 mph 8.0 mph 64% 0.00 in 0.00 W/m2
00:06 77.7 °F 64.6 °F 29.83 in SSW 4.0 mph 4.0 mph 64% 0.00 in 0.00 W/m2
00:11 77.6 °F 64.5 °F 29.83 in SSE 4.0 mph 4.0 mph 64% 0.00 in 0.00 W/m2
00:16 77.4 °F 64.7 °F 29.83 in SSE 5.0 mph 5.0 mph 65% 0.00 in 0.00 W/m2
00:21 77.3 °F 64.6 °F 29.83 in SE 7.0 mph 7.0 mph 65% 0.00 in 0.00 W/m2
00:26 77.1 °F 64.4 °F 29.83 in SSE 4.0 mph 4.0 mph 65% 0.00 in 0.00 W/m2
00:31 77.1 °F 64.4 °F 29.83 in SSW 6.0 mph 8.0 mph 65% 0.00 in 0.00 W/m2
00:36 77.0 °F 64.8 °F 29.83 in SSE 4.0 mph 4.0 mph 66% 0.00 in 0.00 W/m2
00:41 76.8 °F 64.6 °F 29.83 in ESE 7.0 mph 10.0 mph 66% 0.00 in 0.00 W/m2
00:46 76.7 °F 64.5 °F 29.83 in South 2.0 mph 5.0 mph 66% 0.00 in 0.00 W/m2
00:51 76.5 °F 64.7 °F 29.83 in SSE 10.0 mph 12.0 mph 67% 0.00 in 0.00 W/m2
00:56 76.4 °F 64.6 °F 29.83 in SSE 4.0 mph 7.0 mph 67% 0.00 in 0.00 W/m2
01:01 76.3 °F 64.6 °F 29.83 in SE 5.0 mph 5.0 mph 67% 0.00 in 0.00 W/m2
01:06 76.2 °F 64.4 °F 29.83 in South 2.0 mph 5.0 mph 67% 0.00 in 0.00 W/m2
01:11 76.1 °F 64.8 °F 29.83 in South 2.0 mph 6.0 mph 68% 0.00 in 0.00 W/m2
01:16 76.0 °F 64.7 °F 29.83 in South 4.0 mph 4.0 mph 68% 0.00 in 0.00 W/m2
01:21 76.0 °F 64.7 °F 29.83 in SSE 2.0 mph 4.0 mph 68% 0.00 in 0.00 W/m2
01:26 75.9 °F 64.6 °F 29.83 in SSE 4.0 mph 4.0 mph 68% 0.00 in 0.00 W/m2
01:31 75.8 °F 64.5 °F 29.83 in SSE 6.0 mph 11.0 mph 68% 0.00 in 0.00 W/m2
01:36 75.9 °F 64.6 °F 29.83 in South 4.0 mph 8.0 mph 68% 0.00 in 0.00 W/m2
01:41 75.8 °F 64.5 °F 29.83 in SE 6.0 mph 6.0 mph 68% 0.00 in 0.00 W/m2
01:46 75.8 °F 64.5 °F 29.83 in SE 4.0 mph 8.0 mph 68% 0.00 in 0.00 W/m2
01:51 75.7 °F 64.4 °F 29.83 in SSE 5.0 mph 5.0 mph 68% 0.00 in 0.00 W/m2
01:56 75.7 °F 64.4 °F 29.83 in SSE 6.0 mph 6.0 mph 68% 0.00 in 0.00 W/m2
02:01 75.6 °F 64.3 °F 29.83 in South 4.0 mph 4.0 mph 68% 0.00 in 0.00 W/m2
02:06 75.5 °F 64.2 °F 29.83 in ESE 11.0 mph 11.0 mph 68% 0.00 in 0.00 W/m2
02:11 75.4 °F 64.1 °F 29.83 in SW 4.0 mph 5.0 mph 68% 0.00 in 0.00 W/m2
02:16 75.2 °F 64.3 °F 29.84 in SSE 6.0 mph 6.0 mph 69% 0.00 in 0.00 W/m2
02:21 75.1 °F 64.2 °F 29.84 in SSE 1.0 mph 2.0 mph 69% 0.00 in 0.00 W/m2
02:26 74.9 °F 64.1 °F 29.84 in ESE 4.0 mph 5.0 mph 69% 0.00 in 0.00 W/m2
02:31 74.8 °F 64.4 °F 29.84 in SSE 2.0 mph 2.0 mph 70% 0.00 in 0.00 W/m2
02:36 74.6 °F 64.2 °F 29.84 in SE 5.0 mph 5.0 mph 70% 0.00 in 0.00 W/m2
02:41 74.4 °F 64.0 °F 29.84 in SE 6.0 mph 6.0 mph 70% 0.00 in 0.00 W/m2
02:46 74.2 °F 64.2 °F 29.84 in South 3.0 mph 6.0 mph 71% 0.00 in 0.00 W/m2
02:48 74.2 °F 64.2 °F 29.84 in South 5.0 mph 5.0 mph 71% 0.00 in 0.00 W/m2
02:53 74.0 °F 64.0 °F 29.84 in SE 5.0 mph 8.0 mph 71% 0.00 in 0.00 W/m2
02:58 73.8 °F 64.2 °F 29.84 in SSE 2.0 mph 4.0 mph 72% 0.00 in 0.00 W/m2
03:03 73.7 °F 64.1 °F 29.84 in ESE 1.0 mph 3.0 mph 72% 0.00 in 0.00 W/m2
03:08 73.5 °F 63.9 °F 29.84 in SE 2.0 mph 6.0 mph 72% 0.00 in 0.00 W/m2
03:13 73.4 °F 64.2 °F 29.84 in SE 4.0 mph 5.0 mph 73% 0.00 in 0.00 W/m2
03:18 73.3 °F 64.1 °F 29.84 in SSE 4.0 mph 4.0 mph 73% 0.00 in 0.00 W/m2
03:23 73.3 °F 64.1 °F 29.84 in SSE 5.0 mph 5.0 mph 73% 0.00 in 0.00 W/m2
03:28 73.3 °F 64.1 °F 29.84 in ESE 1.0 mph 4.0 mph 73% 0.00 in 0.00 W/m2
03:33 73.3 °F 64.1 °F 29.84 in SSE 4.0 mph 4.0 mph 73% 0.00 in 0.00 W/m2
03:38 73.2 °F 64.0 °F 29.84 in SE 4.0 mph 4.0 mph 73% 0.00 in 0.00 W/m2
03:43 73.2 °F 64.0 °F 29.84 in South 2.0 mph 3.0 mph 73% 0.00 in 0.00 W/m2
03:48 73.1 °F 63.9 °F 29.84 in SSE 2.0 mph 4.0 mph 73% 0.00 in 0.00 W/m2
03:53 73.0 °F 64.2 °F 29.84 in South 3.0 mph 4.0 mph 74% 0.00 in 0.00 W/m2
03:58 73.0 °F 64.2 °F 29.84 in SE 2.0 mph 5.0 mph 74% 0.00 in 0.00 W/m2
04:03 72.8 °F 64.0 °F 29.84 in ESE 2.0 mph 5.0 mph 74% 0.00 in 0.00 W/m2
04:08 72.7 °F 64.3 °F 29.84 in SSE 5.0 mph 5.0 mph 75% 0.00 in 0.00 W/m2
04:13 72.6 °F 64.2 °F 29.83 in ESE 5.0 mph 5.0 mph 75% 0.00 in 0.00 W/m2
04:18 72.6 °F 64.2 °F 29.84 in SE 6.0 mph 6.0 mph 75% 0.00 in 0.00 W/m2
04:23 72.6 °F 64.2 °F 29.84 in SE 2.0 mph 8.0 mph 75% 0.00 in 0.00 W/m2
04:28 72.5 °F 64.1 °F 29.84 in South 4.0 mph 4.0 mph 75% 0.00 in 0.00 W/m2
04:33 72.5 °F 64.1 °F 29.84 in SSE 4.0 mph 4.0 mph 75% 0.00 in 0.00 W/m2
04:38 72.4 °F 64.0 °F 29.84 in ESE 7.0 mph 7.0 mph 75% 0.00 in 0.00 W/m2
04:43 72.4 °F 64.0 °F 29.84 in South 2.0 mph 2.0 mph 75% 0.00 in 0.00 W/m2
04:48 72.2 °F 63.8 °F 29.84 in South 1.0 mph 2.0 mph 75% 0.00 in 0.00 W/m2
04:53 72.2 °F 63.8 °F 29.84 in ESE 5.0 mph 5.0 mph 75% 0.00 in 0.00 W/m2
04:58 72.1 °F 64.1 °F 29.84 in SE 2.0 mph 5.0 mph 76% 0.00 in 0.00 W/m2
05:03 72.1 °F 64.1 °F 29.84 in SSE 2.0 mph 7.0 mph 76% 0.00 in 0.00 W/m2
05:08 72.0 °F 64.0 °F 29.84 in SE 1.0 mph 2.0 mph 76% 0.00 in 0.00 W/m2
05:13 71.9 °F 63.9 °F 29.84 in SSE 2.0 mph 2.0 mph 76% 0.00 in 0.00 W/m2
05:18 71.9 °F 63.9 °F 29.84 in SSE 7.0 mph 7.0 mph 76% 0.00 in 0.00 W/m2
05:23 71.9 °F 63.9 °F 29.84 in SSE 4.0 mph 6.0 mph 76% 0.00 in 0.00 W/m2
05:28 71.9 °F 63.9 °F 29.84 in SSE 2.0 mph 6.0 mph 76% 0.00 in 0.00 W/m2
05:33 72.1 °F 63.8 °F 29.84 in SSE 4.0 mph 5.0 mph 75% 0.00 in 0.00 W/m2
05:38 72.2 °F 63.8 °F 29.84 in SSE 4.0 mph 5.0 mph 75% 0.00 in 0.00 W/m2
05:43 72.3 °F 63.6 °F 29.84 in South 2.0 mph 4.0 mph 74% 0.00 in 0.00 W/m2
05:48 72.4 °F 63.7 °F 29.84 in SE 5.0 mph 7.0 mph 74% 0.00 in 0.00 W/m2
05:53 72.5 °F 63.8 °F 29.84 in SE 4.0 mph 4.0 mph 74% 0.00 in 0.00 W/m2
05:58 72.6 °F 63.8 °F 29.84 in SSE 4.0 mph 6.0 mph 74% 0.00 in 0.00 W/m2
06:03 72.6 °F 63.8 °F 29.84 in SE 1.0 mph 1.0 mph 74% 0.00 in 0.00 W/m2
06:08 72.7 °F 63.9 °F 29.84 in SE 4.0 mph 6.0 mph 74% 0.00 in 0.00 W/m2
06:13 72.7 °F 63.9 °F 29.84 in SSW 5.0 mph 5.0 mph 74% 0.00 in 0.00 W/m2
06:18 72.8 °F 63.7 °F 29.84 in South 4.0 mph 9.0 mph 73% 0.00 in 0.00 W/m2
06:23 72.8 °F 63.7 °F 29.84 in SE 6.0 mph 6.0 mph 73% 0.00 in 0.00 W/m2
06:28 72.9 °F 63.8 °F 29.84 in SSE 4.0 mph 4.0 mph 73% 0.00 in 0.00 W/m2
06:33 72.9 °F 63.8 °F 29.84 in SE 6.0 mph 9.0 mph 73% 0.00 in 0.00 W/m2
06:38 73.0 °F 63.8 °F 29.84 in ESE 9.0 mph 12.0 mph 73% 0.00 in 0.00 W/m2
06:43 73.1 °F 63.5 °F 29.84 in South 2.0 mph 4.0 mph 72% 0.00 in 0.00 W/m2
06:48 73.2 °F 63.6 °F 29.84 in South 4.0 mph 5.0 mph 72% 0.00 in 0.00 W/m2
06:53 73.3 °F 63.7 °F 29.84 in South 4.0 mph 7.0 mph 72% 0.00 in 0.00 W/m2
06:58 73.4 °F 63.8 °F 29.84 in SE 2.0 mph 2.0 mph 72% 0.00 in 0.00 W/m2
07:03 73.4 °F 63.8 °F 29.84 in SE 5.0 mph 8.0 mph 72% 0.00 in 0.00 W/m2
07:08 73.3 °F 63.7 °F 29.84 in SSE 6.0 mph 6.0 mph 72% 0.00 in 5.00 W/m2
07:13 73.1 °F 63.9 °F 29.85 in SSE 2.0 mph 4.0 mph 73% 0.00 in 7.00 W/m2
07:18 72.9 °F 63.8 °F 29.84 in South 2.0 mph 2.0 mph 73% 0.00 in 11.00 W/m2
07:23 72.8 °F 64.0 °F 29.84 in SSE 4.0 mph 4.0 mph 74% 0.00 in 12.00 W/m2
07:28 72.8 °F 64.0 °F 29.84 in South 4.0 mph 5.0 mph 74% 0.00 in 16.00 W/m2
07:33 72.7 °F 63.9 °F 29.84 in SE 6.0 mph 7.0 mph 74% 0.00 in 23.00 W/m2
07:38 72.7 °F 63.9 °F 29.84 in SSE 2.0 mph 6.0 mph 74% 0.00 in 30.00 W/m2
07:43 72.8 °F 64.0 °F 29.84 in ESE 6.0 mph 6.0 mph 74% 0.00 in 37.00 W/m2
07:48 72.8 °F 64.4 °F 29.84 in SE 5.0 mph 5.0 mph 75% 0.00 in 44.00 W/m2
07:53 72.7 °F 64.3 °F 29.84 in SE 1.0 mph 2.0 mph 75% 0.00 in 56.00 W/m2
07:58 72.6 °F 64.2 °F 29.84 in SSE 4.0 mph 6.0 mph 75% 0.00 in 65.00 W/m2
08:03 72.6 °F 64.2 °F 29.84 in South 4.0 mph 4.0 mph 75% 0.00 in 67.00 W/m2
08:08 72.7 °F 64.3 °F 29.85 in SE 5.0 mph 7.0 mph 75% 0.00 in 53.00 W/m2
08:13 72.7 °F 64.3 °F 29.85 in SSW 3.0 mph 3.0 mph 75% 0.00 in 46.00 W/m2
08:18 72.7 °F 64.3 °F 29.85 in SE 4.0 mph 4.0 mph 75% 0.00 in 58.00 W/m2
08:23 72.7 °F 64.3 °F 29.85 in SE 2.0 mph 5.0 mph 75% 0.00 in 62.00 W/m2
08:28 72.8 °F 64.4 °F 29.85 in SE 5.0 mph 5.0 mph 75% 0.00 in 70.00 W/m2
08:33 73.0 °F 64.2 °F 29.85 in SSE 7.0 mph 7.0 mph 74% 0.00 in 76.00 W/m2
08:38 73.3 °F 64.5 °F 29.85 in SSE 5.0 mph 6.0 mph 74% 0.00 in 60.00 W/m2
08:43 73.6 °F 64.4 °F 29.85 in SE 7.0 mph 7.0 mph 73% 0.00 in 90.00 W/m2
08:48 73.8 °F 64.6 °F 29.85 in SSE 4.0 mph 6.0 mph 73% 0.00 in 160.00 W/m2
08:53 74.2 °F 64.6 °F 29.85 in SSE 4.0 mph 5.0 mph 72% 0.00 in 190.00 W/m2
08:58 74.7 °F 65.1 °F 29.85 in SSE 2.0 mph 2.0 mph 72% 0.00 in 239.00 W/m2
09:03 75.2 °F 65.2 °F 29.85 in SE 5.0 mph 8.0 mph 71% 0.00 in 262.00 W/m2
09:08 75.7 °F 65.2 °F 29.85 in SSE 4.0 mph 6.0 mph 70% 0.00 in 276.00 W/m2
09:13 76.1 °F 65.6 °F 29.85 in SSE 7.0 mph 8.0 mph 70% 0.00 in 257.00 W/m2
09:17 76.6 °F 65.3 °F 29.85 in SE 7.0 mph 11.0 mph 68% 0.00 in 304.00 W/m2
09:22 77.0 °F 65.6 °F 29.85 in SSE 7.0 mph 8.0 mph 68% 0.00 in 336.00 W/m2
09:27 77.3 °F 65.9 °F 29.85 in South 1.0 mph 4.0 mph 68% 0.00 in 276.00 W/m2
09:32 77.6 °F 66.2 °F 29.85 in ESE 7.0 mph 7.0 mph 68% 0.00 in 320.00 W/m2
09:37 78.1 °F 66.3 °F 29.85 in South 5.0 mph 5.0 mph 67% 0.00 in 295.00 W/m2
09:42 78.6 °F 66.7 °F 29.85 in SE 1.0 mph 1.0 mph 67% 0.00 in 350.00 W/m2
09:47 79.2 °F 66.9 °F 29.85 in SSW 2.0 mph 2.0 mph 66% 0.00 in 397.00 W/m2
09:52 79.8 °F 67.0 °F 29.85 in West 2.0 mph 2.0 mph 65% 0.00 in 408.00 W/m2
09:57 80.5 °F 67.2 °F 29.85 in WSW 2.0 mph 2.0 mph 64% 0.00 in 327.00 W/m2
10:02 80.8 °F 66.6 °F 29.85 in WSW 5.0 mph 5.0 mph 62% 0.00 in 380.00 W/m2
10:07 81.0 °F 66.8 °F 29.85 in WSW 6.0 mph 6.0 mph 62% 0.00 in 322.00 W/m2
10:12 81.3 °F 67.1 °F 29.85 in SW 4.0 mph 5.0 mph 62% 0.00 in 329.00 W/m2
10:17 81.4 °F 67.1 °F 29.85 in South 4.0 mph 4.0 mph 62% 0.00 in 394.00 W/m2
10:22 82.0 °F 67.7 °F 29.85 in SSE 6.0 mph 6.0 mph 62% 0.00 in 471.00 W/m2
10:27 82.5 °F 67.2 °F 29.85 in SSW 7.0 mph 9.0 mph 60% 0.00 in 482.00 W/m2
10:37 82.9 °F 67.1 °F 29.86 in WSW 9.0 mph 10.0 mph 59% 0.00 in 413.00 W/m2
10:42 82.9 °F 67.1 °F 29.86 in SSE 7.0 mph 7.0 mph 59% 0.00 in 487.00 W/m2
10:47 83.1 °F 67.3 °F 29.86 in South 6.0 mph 7.0 mph 59% 0.00 in 364.00 W/m2
10:52 83.2 °F 67.4 °F 29.85 in SW 5.0 mph 9.0 mph 59% 0.00 in 482.00 W/m2
11:02 83.9 °F 67.6 °F 29.85 in SW 5.0 mph 14.0 mph 58% 0.00 in 443.00 W/m2
11:07 84.1 °F 67.7 °F 29.85 in SSE 7.0 mph 7.0 mph 58% 0.00 in 418.00 W/m2
11:12 84.2 °F 67.3 °F 29.85 in West 9.0 mph 9.0 mph 57% 0.00 in 512.00 W/m2
11:17 84.7 °F 68.3 °F 29.85 in South 1.0 mph 4.0 mph 58% 0.00 in 564.00 W/m2
11:23 85.4 °F 67.9 °F 29.85 in SW 1.0 mph 5.0 mph 56% 0.00 in 554.00 W/m2
11:28 85.9 °F 67.3 °F 29.85 in SSW 6.0 mph 8.0 mph 54% 0.00 in 431.00 W/m2
11:32 86.0 °F 67.4 °F 29.85 in ESE 6.0 mph 9.0 mph 54% 0.00 in 287.00 W/m2
11:37 86.0 °F 66.3 °F 29.85 in SW 3.0 mph 6.0 mph 52% 0.00 in 615.00 W/m2
11:42 86.3 °F 67.2 °F 29.85 in SW 6.0 mph 6.0 mph 53% 0.00 in 563.00 W/m2
11:47 86.4 °F 66.7 °F 29.85 in WSW 4.0 mph 5.0 mph 52% 0.00 in 334.00 W/m2
11:52 86.3 °F 66.6 °F 29.85 in West 9.0 mph 9.0 mph 52% 0.00 in 628.00 W/m2
11:53 86.3 °F 66.6 °F 29.85 in SSE 9.0 mph 9.0 mph 52% 0.00 in 628.00 W/m2
11:58 85.6 °F 66.0 °F 29.85 in SSE 15.0 mph 15.0 mph 52% 0.00 in 373.00 W/m2
12:03 85.5 °F 66.4 °F 29.85 in South 3.0 mph 5.0 mph 53% 0.00 in 323.00 W/m2
12:08 85.7 °F 66.1 °F 29.85 in SSW 4.0 mph 10.0 mph 52% 0.00 in 612.00 W/m2
12:13 85.8 °F 66.2 °F 29.85 in SW 5.0 mph 13.0 mph 52% 0.00 in 438.00 W/m2
12:18 85.7 °F 66.1 °F 29.85 in WSW 12.0 mph 15.0 mph 52% 0.00 in 285.00 W/m2
12:23 85.6 °F 66.5 °F 29.85 in SW 7.0 mph 9.0 mph 53% 0.00 in 671.00 W/m2
12:28 86.1 °F 67.0 °F 29.85 in WSW 7.0 mph 7.0 mph 53% 0.00 in 306.00 W/m2
12:29 86.1 °F 66.4 °F 29.85 in WSW 3.0 mph 5.0 mph 52% 0.00 in 306.00 W/m2
12:34 86.0 °F 66.3 °F 29.85 in SW 5.0 mph 6.0 mph 52% 0.00 in 281.00 W/m2
12:39 85.8 °F 66.7 °F 29.85 in SSW 10.0 mph 10.0 mph 53% 0.00 in 322.00 W/m2
12:44 85.8 °F 66.7 °F 29.85 in SSW 5.0 mph 9.0 mph 53% 0.00 in 367.00 W/m2
12:49 85.8 °F 66.7 °F 29.85 in SW 5.0 mph 8.0 mph 53% 0.00 in 475.00 W/m2
12:54 85.8 °F 66.2 °F 29.85 in South 10.0 mph 10.0 mph 52% 0.00 in 304.00 W/m2
12:59 85.8 °F 66.7 °F 29.85 in SSW 8.0 mph 12.0 mph 53% 0.00 in 659.00 W/m2
13:04 86.4 °F 67.3 °F 29.85 in SW 5.0 mph 9.0 mph 53% 0.00 in 617.00 W/m2
13:09 87.2 °F 67.4 °F 29.84 in SW 4.0 mph 5.0 mph 52% 0.00 in 816.00 W/m2
13:14 88.0 °F 67.1 °F 29.84 in South 11.0 mph 11.0 mph 50% 0.00 in 251.00 W/m2
13:19 87.7 °F 66.2 °F 29.84 in SW 5.0 mph 9.0 mph 49% 0.00 in 875.00 W/m2
13:24 87.6 °F 66.1 °F 29.84 in SSW 4.0 mph 9.0 mph 49% 0.00 in 181.00 W/m2
13:29 87.6 °F 66.7 °F 29.83 in South 5.0 mph 5.0 mph 50% 0.00 in 809.00 W/m2
13:34 88.0 °F 66.5 °F 29.83 in SSW 6.0 mph 8.0 mph 49% 0.00 in 668.00 W/m2
13:39 88.2 °F 66.7 °F 29.83 in SW 5.0 mph 8.0 mph 49% 0.00 in 220.00 W/m2
13:44 87.8 °F 66.9 °F 29.83 in WSW 8.0 mph 8.0 mph 50% 0.00 in 148.00 W/m2
13:54 85.6 °F 67.6 °F 29.83 in NW 2.0 mph 4.0 mph 55% 0.00 in 97.00 W/m2
13:59 84.0 °F 65.1 °F 29.83 in South 2.0 mph 4.0 mph 53% 0.00 in 809.00 W/m2
14:04 84.2 °F 65.2 °F 29.83 in South 4.0 mph 6.0 mph 53% 0.00 in 722.00 W/m2
14:09 85.0 °F 66.0 °F 29.82 in WSW 5.0 mph 8.0 mph 53% 0.00 in 707.00 W/m2
14:14 85.0 °F 66.5 °F 29.82 in WSW 2.0 mph 4.0 mph 54% 0.00 in 246.00 W/m2
14:19 85.3 °F 67.8 °F 29.82 in SW 2.0 mph 3.0 mph 56% 0.00 in 195.00 W/m2
14:24 85.4 °F 67.9 °F 29.81 in WSW 2.0 mph 3.0 mph 56% 0.00 in 90.00 W/m2
14:29 85.3 °F 68.3 °F 29.81 in WSW 1.0 mph 3.0 mph 57% 0.00 in 86.00 W/m2
14:34 85.1 °F 69.2 °F 29.81 in SW 6.0 mph 6.0 mph 59% 0.00 in 76.00 W/m2
14:39 83.8 °F 71.2 °F 29.83 in SW 4.0 mph 8.0 mph 66% 0.07 in 83.00 W/m2
14:44 79.9 °F 68.8 °F 29.83 in SSE 5.0 mph 6.0 mph 69% 0.15 in 132.00 W/m2
14:49 77.4 °F 67.7 °F 29.83 in Calm   1.0 mph 72% 0.18 in 171.00 W/m2
14:54 76.4 °F 66.7 °F 29.83 in South 8.0 mph 11.0 mph 72% 0.19 in 137.00 W/m2
14:59 75.8 °F 67.7 °F 29.82 in SE 4.0 mph 8.0 mph 76% 0.19 in 142.00 W/m2
15:04 75.3 °F 68.0 °F 29.82 in SE 7.0 mph 10.0 mph 78% 0.19 in 105.00 W/m2
15:09 75.4 °F 68.1 °F 29.83 in SSW 2.0 mph 9.0 mph 78% 0.19 in 76.00 W/m2
15:14 75.4 °F 68.8 °F 29.83 in SSE 8.0 mph 9.0 mph 80% 0.20 in 63.00 W/m2
15:19 74.4 °F 67.5 °F 29.84 in SSE 5.0 mph 11.0 mph 79% 0.22 in 49.00 W/m2
15:24 73.3 °F 67.1 °F 29.84 in SSE 7.0 mph 10.0 mph 81% 0.28 in 62.00 W/m2
15:29 72.1 °F 66.7 °F 29.85 in SSE 4.0 mph 5.0 mph 83% 0.32 in 120.00 W/m2
15:34 71.4 °F 66.7 °F 29.82 in East 1.0 mph 7.0 mph 85% 0.40 in 250.00 W/m2
15:39 71.3 °F 66.9 °F 29.82 in East 3.0 mph 5.0 mph 86% 0.36 in 260.00 W/m2
15:44 71.5 °F 67.8 °F 29.83 in East 2.0 mph 4.0 mph 88% 0.26 in 185.00 W/m2
15:49 71.7 °F 68.3 °F 29.83 in Calm   1.0 mph 89% 0.22 in 171.00 W/m2
15:54 72.1 °F 68.0 °F 29.82 in SSE 2.0 mph 7.0 mph 87% 0.22 in 207.00 W/m2
15:59 72.9 °F 67.8 °F 29.82 in SE 4.0 mph 5.0 mph 84% 0.21 in 359.00 W/m2
16:04 73.7 °F 68.2 °F 29.81 in South 1.0 mph 2.0 mph 83% 0.21 in 408.00 W/m2
16:09 74.5 °F 68.7 °F 29.81 in SE 4.0 mph 4.0 mph 82% 0.21 in 234.00 W/m2
16:14 74.9 °F 69.0 °F 29.81 in SE 2.0 mph 2.0 mph 82% 0.20 in 276.00 W/m2
16:19 75.5 °F 68.9 °F 29.81 in SE 1.0 mph 1.0 mph 80% 0.19 in 364.00 W/m2
16:24 76.1 °F 69.1 °F 29.80 in SE 1.0 mph 1.0 mph 79% 0.13 in 211.00 W/m2
16:29 76.6 °F 69.2 °F 29.80 in Calm     78% 0.09 in 237.00 W/m2
16:34 77.1 °F 70.1 °F 29.80 in Calm     79% 0.00 in 271.00 W/m2
16:39 77.5 °F 70.1 °F 29.80 in Calm     78% 0.00 in 209.00 W/m2
16:44 77.8 °F 69.2 °F 29.80 in SE 1.0 mph 2.0 mph 75% 0.00 in 151.00 W/m2
16:49 78.0 °F 69.1 °F 29.80 in SE 1.0 mph 2.0 mph 74% 0.00 in 160.00 W/m2
16:54 78.3 °F 68.9 °F 29.80 in Calm   1.0 mph 73% 0.00 in 236.00 W/m2
16:59 78.7 °F 68.1 °F 29.80 in South 1.0 mph 4.0 mph 70% 0.00 in 244.00 W/m2
17:04 79.2 °F 68.2 °F 29.80 in South 1.0 mph 6.0 mph 69% 0.00 in 229.00 W/m2
17:09 79.6 °F 68.5 °F 29.80 in South 4.0 mph 4.0 mph 69% 0.00 in 311.00 W/m2
17:14 80.0 °F 68.9 °F 29.80 in SSE 4.0 mph 5.0 mph 69% 0.00 in 218.00 W/m2
17:19 80.3 °F 68.8 °F 29.80 in South 6.0 mph 6.0 mph 68% 0.00 in 190.00 W/m2
17:24 80.7 °F 68.7 °F 29.80 in Calm     67% 0.00 in 250.00 W/m2
17:29 81.2 °F 69.2 °F 29.80 in Calm     67% 0.00 in 214.00 W/m2
17:34 81.7 °F 69.2 °F 29.80 in Calm   3.0 mph 66% 0.00 in 155.00 W/m2
17:39 82.0 °F 69.5 °F 29.80 in Calm     66% 0.00 in 134.00 W/m2
17:44 82.2 °F 69.3 °F 29.80 in South 2.0 mph 4.0 mph 65% 0.00 in 151.00 W/m2
17:49 82.3 °F 69.4 °F 29.80 in Calm     65% 0.00 in 163.00 W/m2
17:54 82.5 °F 70.0 °F 29.80 in Calm     66% 0.00 in 114.00 W/m2
17:59 82.6 °F 70.5 °F 29.80 in Calm     67% 0.00 in 79.00 W/m2
18:04 82.6 °F 70.1 °F 29.81 in Calm     66% 0.00 in 65.00 W/m2
18:09 82.5 °F 70.0 °F 29.81 in Calm     66% 0.00 in 58.00 W/m2
18:14 82.4 °F 69.5 °F 29.81 in Calm     65% 0.00 in 49.00 W/m2
18:19 82.2 °F 68.8 °F 29.81 in Calm     64% 0.00 in 46.00 W/m2
18:24 81.9 °F 68.5 °F 29.81 in Calm     64% 0.00 in 46.00 W/m2
18:29 81.8 °F 68.0 °F 29.81 in Calm     63% 0.00 in 47.00 W/m2
18:34 81.6 °F 67.8 °F 29.81 in Calm     63% 0.00 in 51.00 W/m2
18:39 81.5 °F 67.7 °F 29.81 in Calm     63% 0.00 in 40.00 W/m2
18:44 81.5 °F 67.7 °F 29.81 in Calm   1.0 mph 63% 0.00 in 30.00 W/m2
18:49 81.4 °F 67.6 °F 29.81 in Calm     63% 0.00 in 19.00 W/m2
18:54 81.4 °F 71.1 °F 29.82 in Calm     71% 0.00 in 19.00 W/m2
18:59 80.7 °F 69.6 °F 29.82 in NW 2.0 mph 2.0 mph 69% 0.00 in 16.00 W/m2
19:04 79.8 °F 67.9 °F 29.82 in Calm     67% 0.00 in 9.00 W/m2
19:09 78.9 °F 67.4 °F 29.82 in NW 1.0 mph 2.0 mph 68% 0.00 in 9.00 W/m2
19:14 78.2 °F 67.2 °F 29.83 in Calm     69% 0.00 in 5.00 W/m2
19:19 77.3 °F 66.8 °F 29.83 in NNW 1.0 mph 2.0 mph 70% 0.00 in 0.00 W/m2
19:24 76.6 °F 66.5 °F 29.83 in NNW 1.0 mph 2.0 mph 71% 0.00 in 0.00 W/m2
19:29 75.8 °F 66.1 °F 29.84 in North 2.0 mph 5.0 mph 72% 0.00 in 0.00 W/m2
19:34 75.1 °F 65.5 °F 29.84 in North 6.0 mph 9.0 mph 72% 0.00 in 0.00 W/m2
19:44 74.2 °F 65.4 °F 29.85 in NNW 2.0 mph 3.0 mph 74% 0.00 in 0.00 W/m2
19:49 73.8 °F 65.4 °F 29.85 in WNW 3.0 mph 3.0 mph 75% 0.00 in 0.00 W/m2
19:54 73.5 °F 65.5 °F 29.85 in NW 3.0 mph 3.0 mph 76% 0.00 in 0.00 W/m2
19:59 73.2 °F 65.2 °F 29.85 in West 3.0 mph 3.0 mph 76% 0.00 in 0.00 W/m2
20:04 72.8 °F 65.6 °F 29.85 in West 5.0 mph 5.0 mph 78% 0.01 in 0.00 W/m2
20:09 72.4 °F 65.5 °F 29.86 in Calm     79% 0.01 in 0.00 W/m2
20:14 71.7 °F 65.2 °F 29.86 in NW 4.0 mph 4.0 mph 80% 0.01 in 0.00 W/m2
20:19 71.3 °F 65.2 °F 29.87 in NW 2.0 mph 3.0 mph 81% 0.01 in 0.00 W/m2
20:24 71.0 °F 65.2 °F 29.88 in Calm     82% 0.01 in 0.00 W/m2
20:29 70.7 °F 65.3 °F 29.88 in Calm   1.0 mph 83% 0.01 in 0.00 W/m2
20:34 70.5 °F 65.1 °F 29.87 in Calm     83% 0.02 in 0.00 W/m2
20:39 70.1 °F 65.1 °F 29.86 in Calm   1.0 mph 84% 0.02 in 0.00 W/m2
20:44 69.7 °F 64.7 °F 29.86 in Calm   4.0 mph 84% 0.02 in 0.00 W/m2
20:49 69.3 °F 64.6 °F 29.86 in NNW 2.0 mph 3.0 mph 85% 0.02 in 0.00 W/m2
20:54 68.9 °F 64.2 °F 29.86 in Calm   1.0 mph 85% 0.03 in 0.00 W/m2
20:59 68.6 °F 64.2 °F 29.87 in Calm     86% 0.03 in 0.00 W/m2
21:04 68.3 °F 64.0 °F 29.87 in NE 1.0 mph 1.0 mph 86% 0.02 in 0.00 W/m2
21:09 68.1 °F 64.1 °F 29.88 in Calm   2.0 mph 87% 0.02 in 0.00 W/m2
21:14 68.0 °F 64.3 °F 29.88 in NNW 1.0 mph 1.0 mph 88% 0.02 in 0.00 W/m2
21:19 67.9 °F 64.2 °F 29.89 in Calm     88% 0.05 in 0.00 W/m2
SouthEast Lincoln Weather
Compliments of Weather Underground - 2.5 mb